Pagrindinis puslapis
METAR-TAF:

METAR-TAF

Oro uostai :

Hostomel, Ukraina

platuma: 50-36-01N, ilguma: 030-11-37E, Aukštis: 157 m

Dabartinis oras

Ataskaita buvo paskelbta 12 minutes, ne 06:00 UTC
Vėjas 8 kt iš Vakarų
Temperatūra 3°C
Drėgmė 100%
Slėgis 1024 hPa
Matomumas 10 km arba daugiau

METAR: UKKM 200600Z AUTO 26004MPS 9999 // NCD 03/03 Q1024

Laikas: 09:12 (06:12 UTC)

Prognozė

Ataskaita buvo paskelbta 13 valandos ir 9 minutes, ne 17:03 UTC
Prognozė galioja nuo 19 metu 18 UTC su 20 metu 18 UTC
Vėjas 6 kt iš Vakarų
Matomumas 10 km arba daugiau
Išsisklaidę debesys ne aukštis 2000 ft
Tapsmas
nuo 20 metu 06 UTC su 20 metu 07 UTC
Vėjas 10 kt iš Vakarų su gūsio iki 19 kt
Laikinai
nuo 20 metu 07 UTC su 20 metu 15 UTC
Vėjas 14 kt iš Vakarų/Šiaurės Vakarų su gūsio iki 23 kt

TAF: UKKM 191703Z 1918/2018 26003MPS 9999 SCT020 TX11/2012Z TN01/2004Z BECMG 2006/2007 27005G10MPS TEMPO 2007/2015 29007G12MPS

Orai ataskaitas ir orų prognozės (METAR, TAF).

turimą stotys yra geltonos ir raudonos taškus žemėlapyje.

Perkelti pele per norėdami pamatyti stoties vardą.

Tada spustelėkite, norėdami matyti oro stebėjimo ir prognozės.

Norėdami pakeisti žemėlapį: spustelėkite ant žalios mygtukų su juodo kryžiaus žemyn,; žalią mygtuką su brūkšneliu, jei norite nutolinti; arba žalių rodyklių gretimoms žemėlapius.


METAR-TAF: